Time;durP1;ratioP1;P1;durP2;ratioP2;P2;SDS_P1;SDS_P2;PMS_P1;PMS_P2;Temp;Humidity;BMP_temperature;BMP_pressure;BME280_temperature;BME280_humidity;BME280_pressure;Samples;Min_cycle;Max_cycle;Signal;HPM_P1;HPM_P2
2023/07/12 00:02:10;;;;;;;7.67;5.23;;;19.70;99.90;;;;;;4990017;28;20192;-70
2023/07/12 00:04:36;;;;;;;4.97;4.10;;;19.70;99.90;;;;;;4991402;28;20172;-70
2023/07/12 00:07:02;;;;;;;4.83;4.40;;;19.90;99.90;;;;;;4991906;28;20686;-70
2023/07/12 00:09:27;;;;;;;5.47;4.80;;;19.90;99.90;;;;;;4994662;28;20247;-70
2023/07/12 00:11:52;;;;;;;4.37;3.97;;;20.00;99.90;;;;;;4988034;28;20267;-70
2023/07/12 00:14:18;;;;;;;4.13;3.83;;;20.00;99.90;;;;;;4988307;28;20202;-70
2023/07/12 00:16:43;;;;;;;4.03;3.73;;;20.10;99.90;;;;;;4991348;28;20211;-70
2023/07/12 00:19:14;;;;;;;3.90;3.57;;;20.20;99.90;;;;;;4994437;28;20541;-70
2023/07/12 00:21:39;;;;;;;4.50;4.10;;;20.20;99.90;;;;;;4991585;28;20196;-71
2023/07/12 00:24:05;;;;;;;4.27;3.50;;;20.20;99.90;;;;;;4993359;28;20438;-71
2023/07/12 00:26:34;;;;;;;4.93;3.80;;;20.20;99.90;;;;;;4993467;28;20190;-71
2023/07/12 00:29:03;;;;;;;4.23;3.93;;;20.10;99.90;;;;;;4994174;28;20449;-70
2023/07/12 00:31:29;;;;;;;3.20;2.90;;;20.30;99.90;;;;;;4992188;28;20445;-70
2023/07/12 00:33:55;;;;;;;4.13;3.80;;;20.40;99.90;;;;;;4994454;28;20774;-71
2023/07/12 00:36:24;;;;;;;4.13;3.83;;;20.50;99.90;;;;;;4993558;28;20564;-71
2023/07/12 00:38:50;;;;;;;4.20;3.50;;;20.50;99.90;;;;;;4992920;28;20512;-71
2023/07/12 00:41:42;;;;;;;5.80;4.10;;;20.40;99.90;;;;;;4992797;28;20897;-70
2023/07/12 00:44:13;;;;;;;4.00;3.70;;;20.40;99.90;;;;;;4991957;28;20573;-71
2023/07/12 00:46:41;;;;;;;5.43;3.67;;;20.50;99.90;;;;;;4993748;28;20513;-70
2023/07/12 00:49:10;;;;;;;3.67;3.37;;;20.60;99.90;;;;;;4993352;28;20541;-70
2023/07/12 00:51:55;;;;;;;3.50;3.20;;;20.60;99.90;;;;;;4991371;28;20541;-71
2023/07/12 00:54:25;;;;;;;4.33;3.93;;;20.50;99.90;;;;;;4990520;28;20451;-71
2023/07/12 00:56:50;;;;;;;4.40;4.10;;;20.40;99.90;;;;;;4993263;28;20466;-71
2023/07/12 00:59:21;;;;;;;3.60;3.30;;;20.40;99.90;;;;;;4992861;28;20512;-71
2023/07/12 01:01:51;;;;;;;4.00;3.73;;;20.40;99.90;;;;;;4974045;28;20199;-70
2023/07/12 01:04:22;;;;;;;3.70;3.50;;;20.40;99.90;;;;;;4992549;28;20430;-71
2023/07/12 01:06:51;;;;;;;4.53;3.53;;;20.40;99.90;;;;;;4992375;28;20517;-71
2023/07/12 01:09:17;;;;;;;3.70;3.40;;;20.40;99.90;;;;;;4991833;28;22415;-71
2023/07/12 01:11:45;;;;;;;5.93;3.20;;;20.40;99.90;;;;;;4976119;28;20435;-71
2023/07/12 01:14:13;;;;;;;3.80;3.37;;;20.30;99.90;;;;;;4991052;28;20815;-70
2023/07/12 01:16:41;;;;;;;5.60;3.43;;;20.30;99.90;;;;;;4993083;28;20466;-71
2023/07/12 01:19:06;;;;;;;4.20;3.80;;;20.20;99.90;;;;;;4991553;28;20454;-71
2023/07/12 01:21:33;;;;;;;7.03;3.50;;;20.20;99.90;;;;;;4991001;28;20445;-71
2023/07/12 01:23:59;;;;;;;6.37;2.80;;;20.30;99.90;;;;;;4993883;28;20203;-71
2023/07/12 01:26:28;;;;;;;4.47;3.73;;;20.40;99.90;;;;;;4992680;28;20434;-70
2023/07/12 01:28:56;;;;;;;6.53;3.40;;;20.50;99.90;;;;;;4996341;28;20435;-72
2023/07/12 01:31:23;;;;;;;3.90;3.47;;;20.80;99.90;;;;;;4992675;28;20450;-71
2023/07/12 01:33:49;;;;;;;4.53;3.60;;;21.00;99.90;;;;;;5001105;28;20431;-71
2023/07/12 01:36:14;;;;;;;3.33;3.03;;;21.00;99.90;;;;;;4996515;28;20513;-71
2023/07/12 01:38:40;;;;;;;3.70;3.40;;;21.00;99.90;;;;;;4997931;28;20211;-71
2023/07/12 01:41:05;;;;;;;7.80;3.50;;;21.10;99.90;;;;;;4993329;28;20196;-71
2023/07/12 01:43:32;;;;;;;6.70;3.67;;;21.00;99.90;;;;;;4995720;28;20602;-71
2023/07/12 01:45:57;;;;;;;4.67;3.90;;;20.70;99.90;;;;;;4997172;28;20196;-71
2023/07/12 01:48:23;;;;;;;3.27;3.03;;;20.40;99.90;;;;;;4991448;28;20461;-71
2023/07/12 01:50:49;;;;;;;4.97;4.47;;;20.20;99.90;;;;;;4991937;28;20199;-71
2023/07/12 01:53:14;;;;;;;6.93;3.80;;;19.90;99.90;;;;;;4991655;28;20183;-71
2023/07/12 01:55:42;;;;;;;5.03;4.27;;;19.70;99.90;;;;;;4992152;28;20179;-71
2023/07/12 01:58:08;;;;;;;4.33;3.97;;;19.60;99.90;;;;;;4991162;28;20246;-71
2023/07/12 02:00:33;;;;;;;5.10;4.27;;;19.70;99.90;;;;;;4992060;28;20868;-71
2023/07/12 02:02:59;;;;;;;6.30;3.97;;;19.80;99.90;;;;;;4993871;28;20721;-71
2023/07/12 02:05:24;;;;;;;5.33;4.50;;;19.90;99.90;;;;;;4992130;28;20275;-71
2023/07/12 02:07:52;;;;;;;4.77;4.33;;;20.00;99.90;;;;;;4992907;28;20219;-72
2023/07/12 02:10:19;;;;;;;5.43;3.90;;;20.00;99.90;;;;;;4997266;28;20204;-71
2023/07/12 02:12:45;;;;;;;7.77;3.97;;;20.10;99.90;;;;;;4992349;28;20445;-71
2023/07/12 02:15:13;;;;;;;5.57;5.00;;;20.20;99.90;;;;;;4991266;28;20521;-71
2023/07/12 02:17:39;;;;;;;4.73;4.33;;;20.40;99.90;;;;;;4989880;28;20458;-71
2023/07/12 02:20:07;;;;;;;4.93;3.77;;;20.50;99.90;;;;;;4991684;28;20872;-71
2023/07/12 02:22:34;;;;;;;8.57;4.10;;;20.50;99.90;;;;;;4991209;28;20450;-71
2023/07/12 02:25:00;;;;;;;4.40;3.93;;;20.60;99.90;;;;;;4994187;28;20842;-71
2023/07/12 02:27:25;;;;;;;8.80;5.00;;;20.50;99.90;;;;;;4990075;28;20465;-71
2023/07/12 02:29:51;;;;;;;5.23;4.73;;;20.50;99.90;;;;;;4991510;28;20291;-71
2023/07/12 02:32:17;;;;;;;6.70;3.93;;;20.40;99.90;;;;;;4990751;28;20197;-71
2023/07/12 02:34:43;;;;;;;4.40;4.00;;;20.40;99.90;;;;;;4993824;28;20187;-71
2023/07/12 02:37:08;;;;;;;8.27;4.20;;;20.40;99.90;;;;;;4988491;28;20676;-71
2023/07/12 02:39:33;;;;;;;4.43;4.03;;;20.40;99.90;;;;;;4989601;28;20226;-71
2023/07/12 02:41:59;;;;;;;4.73;4.07;;;20.40;99.90;;;;;;4991044;28;20184;-71
2023/07/12 02:44:25;;;;;;;6.30;3.90;;;20.40;99.90;;;;;;4990061;28;20180;-71
2023/07/12 02:46:51;;;;;;;5.47;4.10;;;20.40;99.90;;;;;;4991205;28;20188;-72
2023/07/12 02:49:16;;;;;;;4.40;3.93;;;20.40;99.90;;;;;;4990036;28;20462;-72
2023/07/12 02:51:43;;;;;;;5.00;4.60;;;20.60;99.90;;;;;;4990949;28;20195;-71
2023/07/12 02:54:08;;;;;;;6.63;3.97;;;20.60;99.90;;;;;;4992960;28;20696;-71
2023/07/12 02:56:34;;;;;;;8.10;4.73;;;20.70;99.90;;;;;;4997482;28;20525;-71
2023/07/12 02:58:59;;;;;;;4.93;4.43;;;20.80;99.90;;;;;;4997903;28;20213;-71
2023/07/12 03:01:25;;;;;;;7.03;4.57;;;20.80;99.90;;;;;;5002476;28;20246;-71
2023/07/12 03:03:52;;;;;;;4.20;3.70;;;20.80;99.90;;;;;;4997993;28;20194;-71
2023/07/12 03:06:18;;;;;;;9.60;4.60;;;20.60;99.90;;;;;;4995253;28;20236;-71
2023/07/12 03:08:43;;;;;;;4.80;4.20;;;20.80;99.90;;;;;;4996839;28;20833;-71
2023/07/12 03:11:10;;;;;;;4.87;4.50;;;20.90;99.90;;;;;;5002946;28;20237;-71
2023/07/12 03:13:36;;;;;;;4.47;4.10;;;20.80;99.90;;;;;;4997452;28;20446;-71
2023/07/12 03:16:06;;;;;;;5.07;3.70;;;20.80;99.90;;;;;;4992824;28;20509;-71
2023/07/12 03:18:32;;;;;;;5.77;3.20;;;21.00;99.90;;;;;;4997759;28;20768;-71
2023/07/12 03:20:59;;;;;;;4.83;4.30;;;21.30;99.90;;;;;;5002659;28;20520;-71
2023/07/12 03:23:24;;;;;;;4.47;4.13;;;21.50;99.90;;;;;;4997983;28;20242;-71
2023/07/12 03:25:50;;;;;;;4.90;4.03;;;21.40;99.90;;;;;;4991709;28;20932;-71
2023/07/12 03:28:16;;;;;;;5.03;4.07;;;21.20;99.90;;;;;;5002374;28;20179;-71
2023/07/12 03:30:41;;;;;;;4.73;3.93;;;21.10;99.90;;;;;;5000847;28;20211;-71
2023/07/12 03:33:07;;;;;;;6.23;4.03;;;21.30;99.90;;;;;;4999372;28;20199;-71
2023/07/12 03:35:32;;;;;;;6.33;3.47;;;21.40;99.90;;;;;;4991639;28;20223;-71
2023/07/12 03:37:58;;;;;;;4.97;4.40;;;21.40;99.90;;;;;;4998722;28;20203;-71
2023/07/12 03:40:23;;;;;;;5.27;4.57;;;21.50;99.90;;;;;;4994085;28;20741;-71
2023/07/12 03:42:49;;;;;;;6.83;4.93;;;21.50;99.90;;;;;;4999019;28;20175;-71
2023/07/12 03:45:14;;;;;;;7.10;4.10;;;21.70;99.90;;;;;;4991465;28;20214;-71
2023/07/12 03:47:40;;;;;;;5.60;4.47;;;21.70;99.90;;;;;;4993949;28;20192;-71
2023/07/12 03:50:06;;;;;;;6.50;4.67;;;21.80;99.90;;;;;;4991428;28;20258;-71
2023/07/12 03:52:31;;;;;;;4.67;4.27;;;21.60;99.90;;;;;;4981546;28;20590;-71
2023/07/12 03:54:57;;;;;;;6.73;3.70;;;21.60;99.90;;;;;;4992787;28;20505;-71
2023/07/12 03:57:23;;;;;;;7.20;5.00;;;21.50;99.90;;;;;;4995858;28;20614;-71
2023/07/12 03:59:49;;;;;;;6.33;5.07;;;21.50;99.90;;;;;;4991807;28;20669;-71
2023/07/12 04:02:15;;;;;;;4.90;4.50;;;21.40;99.90;;;;;;4994360;28;20454;-72
2023/07/12 04:04:40;;;;;;;10.57;4.43;;;21.20;99.90;;;;;;4993229;28;20180;-71
2023/07/12 04:07:07;;;;;;;5.60;5.10;;;21.30;99.90;;;;;;4996735;28;20816;-71
2023/07/12 04:09:33;;;;;;;6.73;6.07;;;21.30;99.90;;;;;;5006134;28;20219;-71
2023/07/12 04:11:58;;;;;;;6.50;4.73;;;21.30;99.90;;;;;;4994423;28;20779;-71
2023/07/12 04:14:24;;;;;;;6.43;3.93;;;21.20;99.90;;;;;;5002306;28;20204;-71
2023/07/12 04:16:49;;;;;;;7.73;4.40;;;21.30;99.90;;;;;;5002414;28;20253;-71
2023/07/12 04:19:15;;;;;;;4.40;3.90;;;21.20;99.90;;;;;;5002177;28;20203;-71
2023/07/12 04:21:41;;;;;;;8.03;5.83;;;21.10;99.90;;;;;;5000326;28;20548;-71
2023/07/12 04:24:06;;;;;;;7.53;4.70;;;21.30;99.90;;;;;;5002128;28;20262;-71
2023/07/12 04:26:32;;;;;;;5.33;3.97;;;21.40;99.90;;;;;;4994808;28;20180;-71
2023/07/12 04:28:58;;;;;;;4.80;4.37;;;21.50;99.90;;;;;;5007060;28;20274;-71
2023/07/12 04:31:23;;;;;;;5.70;4.53;;;21.40;99.90;;;;;;5001378;28;20878;-70
2023/07/12 04:33:49;;;;;;;9.50;5.60;;;21.30;99.90;;;;;;5000423;28;20285;-71
2023/07/12 04:36:17;;;;;;;5.70;4.27;;;21.20;99.90;;;;;;4993571;28;20233;-71
2023/07/12 04:38:42;;;;;;;6.73;4.27;;;21.30;99.90;;;;;;4999271;28;20929;-71
2023/07/12 04:41:08;;;;;;;6.20;4.73;;;21.30;99.90;;;;;;5004306;28;20506;-71
2023/07/12 04:43:34;;;;;;;5.87;5.23;;;21.40;99.90;;;;;;4998652;28;20741;-71
2023/07/12 04:46:00;;;;;;;5.70;4.63;;;21.40;99.90;;;;;;4997176;28;20182;-71
2023/07/12 04:48:26;;;;;;;8.53;5.70;;;21.70;99.90;;;;;;5001969;28;20186;-71
2023/07/12 04:50:53;;;;;;;12.47;5.23;;;21.70;99.90;;;;;;5002068;28;20458;-71
2023/07/12 04:53:20;;;;;;;10.10;5.70;;;21.80;99.90;;;;;;5001464;28;21006;-71
2023/07/12 04:55:46;;;;;;;5.83;5.03;;;21.80;99.90;;;;;;4998893;28;20473;-71
2023/07/12 04:58:12;;;;;;;9.93;5.50;;;21.90;99.90;;;;;;4993531;28;20467;-71
2023/07/12 05:00:38;;;;;;;6.57;5.90;;;21.70;99.90;;;;;;4992495;28;20469;-71
2023/07/12 05:03:03;;;;;;;6.70;4.90;;;21.70;99.90;;;;;;4991689;28;20179;-71
2023/07/12 05:05:29;;;;;;;6.17;4.80;;;21.60;99.90;;;;;;4994222;28;20211;-71
2023/07/12 05:07:55;;;;;;;8.40;5.67;;;21.60;99.90;;;;;;4995726;28;20234;-71
2023/07/12 05:10:20;;;;;;;8.77;5.60;;;21.60;99.90;;;;;;5000407;28;20703;-71
2023/07/12 05:12:46;;;;;;;6.33;4.73;;;21.70;99.90;;;;;;5001808;28;20187;-71
2023/07/12 05:15:12;;;;;;;5.67;5.10;;;21.80;99.90;;;;;;5000151;28;20391;-71
2023/07/12 05:17:39;;;;;;;9.10;5.43;;;21.80;99.90;;;;;;4993153;28;20215;-71
2023/07/12 05:20:12;;;;;;;7.93;5.63;;;21.90;99.90;;;;;;4994644;28;20452;-71
2023/07/12 05:22:38;;;;;;;6.80;5.20;;;21.80;99.90;;;;;;4995940;28;20502;-71
2023/07/12 05:25:04;;;;;;;7.00;5.47;;;21.70;99.90;;;;;;4991159;28;20530;-71
2023/07/12 05:27:30;;;;;;;6.23;5.50;;;21.70;99.90;;;;;;4992389;28;20270;-71
2023/07/12 05:29:55;;;;;;;6.00;5.40;;;21.80;99.90;;;;;;5002152;28;21014;-71
2023/07/12 05:32:21;;;;;;;8.20;5.70;;;21.70;99.90;;;;;;5003842;28;20179;-71
2023/07/12 05:34:47;;;;;;;6.43;4.90;;;21.90;99.90;;;;;;4991007;28;20191;-71
2023/07/12 05:37:13;;;;;;;5.77;5.10;;;22.20;99.90;;;;;;4995583;28;20692;-71
2023/07/12 05:39:39;;;;;;;9.03;5.83;;;22.40;99.90;;;;;;5000480;28;20262;-71
2023/07/12 05:42:05;;;;;;;7.27;6.30;;;22.30;99.90;;;;;;4997281;28;20554;-71
2023/07/12 05:44:31;;;;;;;8.27;5.97;;;22.10;99.90;;;;;;4993008;28;20461;-71
2023/07/12 05:46:56;;;;;;;8.57;5.23;;;21.90;99.90;;;;;;4993511;28;20191;-71
2023/07/12 05:49:22;;;;;;;7.23;6.53;;;21.90;99.90;;;;;;4993391;28;20200;-71
2023/07/12 05:51:48;;;;;;;6.60;6.03;;;21.90;99.90;;;;;;4971269;28;20205;-70
2023/07/12 05:54:14;;;;;;;9.13;6.30;;;21.90;99.90;;;;;;4988359;28;20183;-70
2023/07/12 05:56:40;;;;;;;6.93;6.33;;;22.00;99.90;;;;;;4992850;28;20940;-70
2023/07/12 05:59:06;;;;;;;7.10;6.60;;;22.00;99.90;;;;;;4993285;28;20446;-69
2023/07/12 06:01:31;;;;;;;7.57;6.83;;;22.10;99.90;;;;;;4995984;28;20684;-69
2023/07/12 06:03:57;;;;;;;8.10;6.90;;;22.10;99.90;;;;;;4999359;28;20183;-69
2023/07/12 06:06:23;;;;;;;9.00;7.27;;;22.30;99.90;;;;;;4990993;28;20183;-69
2023/07/12 06:08:48;;;;;;;8.10;7.40;;;22.40;99.90;;;;;;4999394;28;20175;-70
2023/07/12 06:11:14;;;;;;;8.53;7.80;;;22.60;99.90;;;;;;5002659;28;20272;-69
2023/07/12 06:13:39;;;;;;;7.73;7.00;;;22.70;99.90;;;;;;4992789;28;20563;-69
2023/07/12 06:16:06;;;;;;;9.03;6.23;;;22.70;99.90;;;;;;4989245;28;20195;-69
2023/07/12 06:18:32;;;;;;;7.10;6.50;;;22.80;99.90;;;;;;4991156;28;20198;-69
2023/07/12 06:21:00;;;;;;;7.40;6.47;;;22.80;99.90;;;;;;4996117;28;20454;-69
2023/07/12 06:23:26;;;;;;;6.93;6.23;;;22.80;99.90;;;;;;4991888;28;20438;-69
2023/07/12 06:25:55;;;;;;;9.17;7.20;;;22.80;99.90;;;;;;4991996;28;20442;-69
2023/07/12 06:28:20;;;;;;;8.43;7.30;;;22.90;99.90;;;;;;4990464;28;20430;-70
2023/07/12 06:30:46;;;;;;;12.97;7.73;;;22.90;99.90;;;;;;5000193;28;20553;-69
2023/07/12 06:33:11;;;;;;;11.10;7.30;;;23.10;99.90;;;;;;4998997;28;20172;-69
2023/07/12 06:35:38;;;;;;;7.33;6.07;;;23.20;99.90;;;;;;4991586;28;20707;-69
2023/07/12 06:38:04;;;;;;;8.30;7.60;;;23.40;99.90;;;;;;4996737;28;20584;-70
2023/07/12 06:40:29;;;;;;;7.10;6.50;;;23.60;99.90;;;;;;5003199;28;20541;-69
2023/07/12 06:42:55;;;;;;;8.13;6.73;;;23.90;99.90;;;;;;4995673;28;20180;-69
2023/07/12 06:45:20;;;;;;;7.13;6.20;;;24.30;99.90;;;;;;4990986;28;20648;-69
2023/07/12 06:47:46;;;;;;;8.03;6.23;;;24.50;99.90;;;;;;4983485;28;20177;-69
2023/07/12 06:50:11;;;;;;;7.27;6.57;;;24.50;99.90;;;;;;4988467;28;20350;-70
2023/07/12 06:52:37;;;;;;;7.60;6.00;;;24.60;99.90;;;;;;4993919;28;20195;-69
2023/07/12 06:55:03;;;;;;;6.80;6.10;;;24.70;99.90;;;;;;4991883;28;20577;-69
2023/07/12 06:57:28;;;;;;;6.47;5.90;;;24.90;99.90;;;;;;5001614;28;20264;-69
2023/07/12 06:59:54;;;;;;;7.23;6.50;;;25.00;99.90;;;;;;5002188;28;20556;-69
2023/07/12 07:02:19;;;;;;;8.30;6.30;;;25.20;99.90;;;;;;4992728;28;20180;-68
2023/07/12 07:04:45;;;;;;;11.73;6.50;;;25.40;99.90;;;;;;4994042;28;20198;-68
2023/07/12 07:07:10;;;;;;;7.73;7.03;;;25.60;99.90;;;;;;4996210;28;20179;-69
2023/07/12 07:09:39;;;;;;;10.27;6.83;;;25.60;99.90;;;;;;5001285;28;20718;-69
2023/07/12 07:12:07;;;;;;;7.90;7.13;;;25.40;99.90;;;;;;5001686;28;20564;-70
2023/07/12 07:14:33;;;;;;;7.47;6.60;;;25.20;99.90;;;;;;4993201;28;20808;-69
2023/07/12 07:16:59;;;;;;;8.07;5.90;;;25.10;99.90;;;;;;4988133;28;20466;-69
2023/07/12 07:19:24;;;;;;;9.57;6.30;;;25.20;99.90;;;;;;4994344;28;20202;-69
2023/07/12 07:21:50;;;;;;;6.93;6.23;;;25.30;99.90;;;;;;4995510;28;20289;-69
2023/07/12 07:24:17;;;;;;;13.83;6.60;;;25.30;99.90;;;;;;4993854;28;20253;-69
2023/07/12 07:26:43;;;;;;;6.63;6.03;;;25.50;99.90;;;;;;4993479;28;20253;-70
2023/07/12 07:29:08;;;;;;;6.00;5.37;;;25.50;99.90;;;;;;4991799;28;20979;-68
2023/07/12 07:31:34;;;;;;;5.00;4.50;;;25.40;99.90;;;;;;5000725;28;20444;-67
2023/07/12 07:33:59;;;;;;;6.40;5.60;;;25.50;99.90;;;;;;4999745;28;20850;-68
2023/07/12 07:36:25;;;;;;;11.43;6.50;;;25.80;99.90;;;;;;4995344;28;20237;-68
2023/07/12 07:38:50;;;;;;;7.27;5.67;;;25.90;99.90;;;;;;5009608;28;20269;-67
2023/07/12 07:41:16;;;;;;;8.47;4.57;;;26.00;99.90;;;;;;5003168;28;20234;-68
2023/07/12 07:43:44;;;;;;;6.63;5.93;;;26.00;99.90;;;;;;4996261;28;20549;-68
2023/07/12 07:46:10;;;;;;;8.70;5.83;;;26.10;99.90;;;;;;4994134;28;20184;-68
2023/07/12 07:48:36;;;;;;;7.80;5.80;;;26.30;99.90;;;;;;4994985;28;20450;-67
2023/07/12 07:51:01;;;;;;;7.30;5.30;;;26.30;99.90;;;;;;4993277;28;20449;-68
2023/07/12 07:53:27;;;;;;;7.23;6.50;;;26.30;99.90;;;;;;4995797;28;20189;-70
2023/07/12 07:55:53;;;;;;;6.10;5.60;;;26.40;99.90;;;;;;4990053;28;20242;-66
2023/07/12 07:58:20;;;;;;;6.23;5.63;;;26.50;99.90;;;;;;4995121;28;20218;-67
2023/07/12 08:00:45;;;;;;;8.13;5.90;;;26.60;99.90;;;;;;4994223;28;20207;-70
2023/07/12 08:03:11;;;;;;;6.63;6.03;;;26.90;99.90;;;;;;5000318;28;20524;-68
2023/07/12 08:05:38;;;;;;;6.10;5.50;;;27.00;99.90;;;;;;4994873;28;20188;-69
2023/07/12 08:08:03;;;;;;;7.10;6.10;;;27.00;99.90;;;;;;4992539;28;20270;-67
2023/07/12 08:10:29;;;;;;;6.30;5.70;;;26.90;99.90;;;;;;4991005;28;20608;-67
2023/07/12 08:12:56;;;;;;;7.80;5.90;;;26.90;99.90;;;;;;4993785;28;20190;-66
2023/07/12 08:15:23;;;;;;;7.67;5.07;;;27.30;99.90;;;;;;4991273;28;20504;-66
2023/07/12 08:17:49;;;;;;;6.17;5.63;;;27.50;99.90;;;;;;5000369;28;20462;-66
2023/07/12 08:20:14;;;;;;;6.40;5.90;;;27.60;99.90;;;;;;4998916;28;20524;-66
2023/07/12 08:22:40;;;;;;;8.03;5.80;;;27.60;99.90;;;;;;4998073;28;20435;-66
2023/07/12 08:25:06;;;;;;;6.80;6.10;;;27.80;99.90;;;;;;4995658;28;20188;-67
2023/07/12 08:27:32;;;;;;;6.80;5.20;;;28.00;99.90;;;;;;4994233;28;20188;-67
2023/07/12 08:29:59;;;;;;;7.40;6.53;;;28.10;99.90;;;;;;4994808;28;20468;-67
2023/07/12 08:32:29;;;;;;;5.60;5.07;;;28.40;99.90;;;;;;4975121;28;20787;-67
2023/07/12 08:34:55;;;;;;;5.60;5.10;;;28.80;99.90;;;;;;4992628;28;20447;-67
2023/07/12 08:37:21;;;;;;;8.47;5.90;;;29.10;99.90;;;;;;4996391;28;20465;-67
2023/07/12 08:39:47;;;;;;;6.43;5.47;;;29.20;99.90;;;;;;4988880;28;20461;-67
2023/07/12 08:42:18;;;;;;;7.43;6.07;;;29.30;99.90;;;;;;4992696;28;20435;-67
2023/07/12 08:44:43;;;;;;;6.10;5.50;;;29.50;99.90;;;;;;4990580;28;20190;-67
2023/07/12 08:47:16;;;;;;;5.73;5.33;;;29.50;99.90;;;;;;4991995;28;20513;-67
2023/07/12 08:49:42;;;;;;;5.77;5.23;;;29.50;99.90;;;;;;4993244;28;20587;-67
2023/07/12 08:52:15;;;;;;;4.93;4.20;;;29.40;99.90;;;;;;4989852;28;20435;-67
2023/07/12 08:54:41;;;;;;;5.30;4.80;;;28.90;99.90;;;;;;4992540;28;20212;-67
2023/07/12 08:57:18;;;;;;;7.73;4.17;;;28.90;99.90;;;;;;4991599;28;20517;-67
2023/07/12 08:59:54;;;;;;;4.73;4.33;;;29.20;99.90;;;;;;4993091;28;20210;-67
2023/07/12 09:02:23;;;;;;;5.80;4.97;;;29.30;99.90;;;;;;4995712;28;20452;-66
2023/07/12 09:04:49;;;;;;;4.70;4.30;;;29.50;99.90;;;;;;4993670;28;20445;-65
2023/07/12 09:07:27;;;;;;;4.77;4.37;;;29.10;99.90;;;;;;4992120;28;20789;-66
2023/07/12 09:09:55;;;;;;;6.03;4.20;;;29.40;99.90;;;;;;4991142;28;20206;-67
2023/07/12 09:12:24;;;;;;;4.70;4.20;;;29.90;99.90;;;;;;4991285;28;20549;-68
2023/07/12 09:14:53;;;;;;;6.87;4.77;;;30.20;97.60;;;;;;4992864;28;20854;-68
2023/07/12 09:17:24;;;;;;;6.87;4.27;;;29.80;96.20;;;;;;4991615;28;20472;-68
2023/07/12 09:19:50;;;;;;;4.57;4.03;;;29.60;96.80;;;;;;4992912;28;20463;-68
2023/07/12 09:22:19;;;;;;;3.80;3.50;;;29.50;97.50;;;;;;4995482;28;20435;-68
2023/07/12 09:24:53;;;;;;;4.37;4.00;;;29.40;97.80;;;;;;4991255;28;20250;-68
2023/07/12 09:27:23;;;;;;;9.40;8.60;;;29.80;96.80;;;;;;4990670;28;20453;-68
2023/07/12 09:29:57;;;;;;;7.40;4.10;;;30.10;96.70;;;;;;4993333;28;20485;-68
2023/07/12 09:32:36;;;;;;;4.40;4.10;;;30.10;95.50;;;;;;4991668;28;20900;-68
2023/07/12 09:35:04;;;;;;;3.90;3.60;;;30.00;94.50;;;;;;4992377;28;20493;-68
2023/07/12 09:37:35;;;;;;;5.23;4.33;;;29.60;95.40;;;;;;4993489;28;20831;-68
2023/07/12 09:40:02;;;;;;;5.03;4.63;;;29.90;95.50;;;;;;4992105;28;20526;-68
2023/07/12 09:42:30;;;;;;;3.77;3.47;;;30.40;94.70;;;;;;4992886;28;20454;-68
2023/07/12 09:44:57;;;;;;;4.63;4.20;;;30.50;93.40;;;;;;4990893;28;20526;-68
2023/07/12 09:47:37;;;;;;;4.60;4.30;;;30.70;92.80;;;;;;4991328;28;20513;-68
2023/07/12 09:50:22;;;;;;;4.60;4.20;;;31.00;92.10;;;;;;4989401;28;20482;-68
2023/07/12 09:53:12;;;;;;;5.50;4.10;;;31.20;90.70;;;;;;4988567;28;20847;-68
2023/07/12 09:56:01;;;;;;;5.77;4.23;;;31.20;89.70;;;;;;4992935;28;20446;-68
2023/07/12 09:58:47;;;;;;;9.87;4.90;;;31.00;90.50;;;;;;4990726;28;20823;-68
2023/07/12 10:01:28;;;;;;;4.27;3.90;;;31.60;90.20;;;;;;4997382;28;20438;-68
2023/07/12 10:03:56;;;;;;;4.80;4.30;;;32.50;84.70;;;;;;4993129;28;20458;-68
2023/07/12 10:06:38;;;;;;;5.03;4.47;;;32.70;81.50;;;;;;4988921;28;20883;-68
2023/07/12 10:09:16;;;;;;;4.77;4.30;;;32.80;79.80;;;;;;4989866;28;20536;-68
2023/07/12 10:12:00;;;;;;;5.10;4.40;;;32.80;80.20;;;;;;4990787;28;20835;-68
2023/07/12 10:14:32;;;;;;;4.47;3.90;;;32.80;77.10;;;;;;4988277;28;20446;-68
2023/07/12 10:16:58;;;;;;;4.57;4.20;;;32.40;78.50;;;;;;4991655;28;20461;-68
2023/07/12 10:19:32;;;;;;;4.63;4.30;;;32.60;76.40;;;;;;4999601;28;20480;-68
2023/07/12 10:22:01;;;;;;;5.70;4.90;;;32.80;74.30;;;;;;5001762;28;20185;-68
2023/07/12 10:24:42;;;;;;;4.60;4.23;;;32.40;74.90;;;;;;4995486;28;20430;-68
2023/07/12 10:27:19;;;;;;;4.87;4.43;;;32.70;74.60;;;;;;4997424;28;20473;-68
2023/07/12 10:30:02;;;;;;;7.03;4.43;;;33.80;72.50;;;;;;5003328;28;20982;-68
2023/07/12 10:32:34;;;;;;;4.60;4.20;;;34.80;67.20;;;;;;4996255;28;20438;-68
2023/07/12 10:35:23;;;;;;;7.57;4.73;;;35.20;64.30;;;;;;4992748;28;20450;-68
2023/07/12 10:37:58;;;;;;;6.17;4.80;;;34.80;62.80;;;;;;4991180;28;20524;-68
2023/07/12 10:40:28;;;;;;;5.77;4.90;;;33.50;62.70;;;;;;4992209;28;20456;-68
2023/07/12 10:42:59;;;;;;;4.83;4.53;;;33.40;64.20;;;;;;4999906;28;20437;-68
2023/07/12 10:45:31;;;;;;;5.10;4.63;;;32.70;64.40;;;;;;4988241;28;20441;-68
2023/07/12 10:47:58;;;;;;;5.30;4.80;;;32.50;65.70;;;;;;4990267;28;20951;-69
2023/07/12 10:50:47;;;;;;;5.23;4.73;;;33.00;62.90;;;;;;4999800;28;20493;-69
2023/07/12 10:53:22;;;;;;;5.87;4.53;;;33.50;62.80;;;;;;4994075;28;20446;-68
2023/07/12 10:56:05;;;;;;;5.13;4.73;;;34.60;61.10;;;;;;4989071;28;20438;-67
2023/07/12 10:58:49;;;;;;;5.77;4.50;;;35.20;58.20;;;;;;4990753;28;20466;-69
2023/07/12 11:01:34;;;;;;;5.43;4.73;;;35.70;57.00;;;;;;4994981;28;20458;-69
2023/07/12 11:04:29;;;;;;;5.60;5.00;;;36.00;56.30;;;;;;4990716;28;20419;-69
2023/07/12 11:07:13;;;;;;;5.10;4.60;;;35.90;54.80;;;;;;4987177;28;20935;-68
2023/07/12 11:12:32;;;;;;;8.23;5.60;;;35.10;56.00;;;;;;4989754;28;20509;-69
2023/07/12 11:15:17;;;;;;;6.20;5.67;;;35.70;55.00;;;;;;4991844;28;20438;-69
2023/07/12 11:18:21;;;;;;;6.53;5.63;;;35.90;53.80;;;;;;4992152;28;20486;-69
2023/07/12 11:21:01;;;;;;;6.07;5.53;;;36.10;52.90;;;;;;4990546;28;20546;-69
2023/07/12 11:23:38;;;;;;;6.10;5.10;;;36.50;53.20;;;;;;4987825;28;20510;-69
2023/07/12 11:26:31;;;;;;;6.07;5.57;;;38.30;51.90;;;;;;4993719;28;20462;-70
2023/07/12 11:29:35;;;;;;;4.80;4.33;;;38.70;47.70;;;;;;4986871;28;20906;-68
2023/07/12 11:32:23;;;;;;;6.10;5.60;;;37.70;47.00;;;;;;4990536;28;20469;-68
2023/07/12 11:34:53;;;;;;;7.60;4.03;;;36.90;48.70;;;;;;4987467;28;20450;-68
2023/07/12 11:37:30;;;;;;;5.77;5.27;;;37.30;48.20;;;;;;4990594;28;20500;-68
2023/07/12 11:39:55;;;;;;;4.97;4.57;;;38.80;46.10;;;;;;4992737;28;20564;-68
2023/07/12 11:42:27;;;;;;;5.57;5.17;;;38.60;45.40;;;;;;4996652;28;20947;-68
2023/07/12 11:45:05;;;;;;;4.90;4.60;;;37.40;46.10;;;;;;4993428;28;20175;-68
2023/07/12 11:47:31;;;;;;;4.97;4.53;;;38.10;45.90;;;;;;4990705;28;20514;-68
2023/07/12 11:49:59;;;;;;;5.90;5.50;;;38.20;44.80;;;;;;4989063;28;20481;-68
2023/07/12 11:52:27;;;;;;;5.57;5.10;;;37.40;45.00;;;;;;4991057;28;20466;-68
2023/07/12 11:54:55;;;;;;;5.80;5.40;;;37.10;46.60;;;;;;4990955;28;20434;-68
2023/07/12 11:57:21;;;;;;;5.60;5.10;;;36.90;46.20;;;;;;4986345;28;20462;-68
2023/07/12 11:59:49;;;;;;;6.00;5.50;;;36.80;46.20;;;;;;4987951;28;20471;-68
2023/07/12 12:02:20;;;;;;;6.53;4.40;;;37.50;46.70;;;;;;4990361;28;20179;-68
2023/07/12 12:04:49;;;;;;;5.67;5.10;;;38.10;44.40;;;;;;4989167;28;20431;-68
2023/07/12 12:07:36;;;;;;;5.03;4.60;;;38.00;44.30;;;;;;4989747;28;20443;-68
2023/07/12 12:10:02;;;;;;;5.70;4.97;;;37.00;44.80;;;;;;4990271;28;20525;-68
2023/07/12 12:12:30;;;;;;;6.00;5.60;;;37.00;45.90;;;;;;4997347;28;20445;-69
2023/07/12 12:14:56;;;;;;;6.03;5.10;;;36.70;46.50;;;;;;4995439;28;20458;-68
2023/07/12 12:17:29;;;;;;;5.20;4.60;;;37.00;46.10;;;;;;4990821;28;20525;-68
2023/07/12 12:20:25;;;;;;;6.40;5.80;;;38.20;45.80;;;;;;4991514;28;20318;-69
2023/07/12 12:23:04;;;;;;;5.33;4.93;;;39.60;43.70;;;;;;4972703;28;20864;-69
2023/07/12 12:25:30;;;;;;;5.50;4.70;;;38.40;42.70;;;;;;4993277;28;20461;-69
2023/07/12 12:27:56;;;;;;;5.00;4.70;;;37.60;43.80;;;;;;4993974;28;20434;-69
2023/07/12 12:30:25;;;;;;;6.40;5.00;;;36.30;44.40;;;;;;4991592;28;20470;-69
2023/07/12 12:32:59;;;;;;;6.20;4.10;;;37.10;44.80;;;;;;4994475;28;20533;-67
2023/07/12 12:35:25;;;;;;;5.03;4.57;;;39.70;42.40;;;;;;4994776;28;20470;-67
2023/07/12 12:37:56;;;;;;;5.23;4.73;;;39.40;41.40;;;;;;4994468;28;20805;-66
2023/07/12 12:40:22;;;;;;;6.10;5.57;;;39.70;41.80;;;;;;4991583;28;20964;-66
2023/07/12 12:43:03;;;;;;;5.60;5.10;;;40.50;40.70;;;;;;4995613;28;20431;-66
2023/07/12 12:45:35;;;;;;;5.67;5.27;;;40.90;38.70;;;;;;4993309;28;20501;-66
2023/07/12 12:48:01;;;;;;;5.20;4.80;;;42.30;37.00;;;;;;4995150;28;20439;-67
2023/07/12 12:50:27;;;;;;;5.93;5.37;;;43.00;35.50;;;;;;4991466;28;20556;-67
2023/07/12 12:53:01;;;;;;;5.50;4.80;;;42.40;35.50;;;;;;5001873;28;20436;-66
2023/07/12 12:55:27;;;;;;;5.60;5.10;;;43.00;35.10;;;;;;4992111;28;20433;-67
2023/07/12 12:57:55;;;;;;;5.73;4.63;;;42.80;34.10;;;;;;4992223;28;20493;-67